Time;durP1;ratioP1;P1;durP2;ratioP2;P2;SDS_P1;SDS_P2;PMS_P1;PMS_P2;Temp;Humidity;BMP_temperature;BMP_pressure;BME280_temperature;BME280_humidity;BME280_pressure;Samples;Min_cycle;Max_cycle;Signal;HPM_P1;HPM_P2
2023/06/03 00:00:11;;;;;;;6.23;3.43;;;14.10;97.10;;;14.91;94.66;98269.16;5022298;28;20466;-77
2023/06/03 00:02:40;;;;;;;7.03;2.83;;;14.10;96.90;;;14.88;95.12;98261.69;5020080;28;20462;-78
2023/06/03 00:05:09;;;;;;;10.30;2.80;;;14.00;97.00;;;14.85;95.57;98267.38;5021871;28;20466;-78
2023/06/03 00:07:38;;;;;;;6.83;2.93;;;14.00;97.20;;;14.78;96.22;98274.47;5020010;28;20576;-78
2023/06/03 00:10:09;;;;;;;6.33;3.13;;;13.90;97.40;;;14.79;96.14;98260.28;5022248;28;20470;-77
2023/06/03 00:12:39;;;;;;;8.77;2.77;;;13.90;97.20;;;14.75;96.35;98274.91;5020889;28;20454;-77
2023/06/03 00:15:10;;;;;;;4.60;2.90;;;13.90;97.20;;;14.70;97.06;98272.06;5020351;28;20541;-77
2023/06/03 00:17:40;;;;;;;4.67;2.50;;;13.90;97.30;;;14.67;97.19;98273.28;5021626;28;20575;-77
2023/06/03 00:20:11;;;;;;;6.17;2.47;;;13.80;97.50;;;14.62;97.19;98270.47;5022854;28;20584;-78
2023/06/03 00:22:41;;;;;;;4.37;2.80;;;13.90;97.30;;;14.57;97.71;98273.72;5021694;28;20556;-77
2023/06/03 00:25:13;;;;;;;6.73;2.50;;;13.80;97.70;;;14.52;98.15;98270.91;5021162;28;20458;-77
2023/06/03 00:27:43;;;;;;;7.97;2.73;;;13.70;97.60;;;14.51;98.61;98274.53;5023675;28;20462;-77
2023/06/03 00:30:13;;;;;;;3.90;2.70;;;13.70;97.70;;;14.48;99.05;98274.94;5023552;28;20467;-78
2023/06/03 00:32:42;;;;;;;8.70;2.33;;;13.60;97.70;;;14.45;99.29;98275.38;5023328;28;21026;-78
2023/06/03 00:35:11;;;;;;;5.97;2.53;;;13.60;97.80;;;14.42;99.12;98273.16;5022336;28;20515;-77
2023/06/03 00:37:40;;;;;;;11.50;2.93;;;13.60;97.70;;;14.38;99.30;98273.75;5023378;28;20497;-77
2023/06/03 00:40:10;;;;;;;6.33;2.80;;;13.60;97.80;;;14.34;99.50;98268.09;5026837;28;20470;-77
2023/06/03 00:42:40;;;;;;;5.37;2.10;;;13.60;97.60;;;14.29;99.79;98267.88;5026837;28;20565;-77
2023/06/03 00:45:09;;;;;;;11.97;2.47;;;13.50;97.80;;;14.28;99.99;98273.34;5026224;28;20458;-77
2023/06/03 00:47:40;;;;;;;3.50;2.27;;;13.50;97.80;;;14.27;100.00;98267.25;5027738;28;20470;-77
2023/06/03 00:50:13;;;;;;;4.13;2.67;;;13.40;97.90;;;14.24;100.00;98266.88;5027029;28;20487;-78
2023/06/03 00:52:44;;;;;;;11.70;3.10;;;13.40;98.10;;;14.21;100.00;98273.34;5027952;28;20498;-77
2023/06/03 00:55:13;;;;;;;8.37;2.50;;;13.40;97.90;;;14.16;100.00;98270.50;5027360;28;20472;-77
2023/06/03 00:57:42;;;;;;;12.50;3.07;;;13.40;98.00;;;14.11;100.00;98267.69;5026860;28;21398;-78
2023/06/03 01:00:12;;;;;;;4.60;2.40;;;13.30;97.80;;;14.09;100.00;98265.25;5024308;28;20889;-77
2023/06/03 01:02:44;;;;;;;5.77;2.60;;;13.30;98.50;;;14.07;100.00;98263.84;5025915;28;20474;-77
2023/06/03 01:05:14;;;;;;;4.33;2.43;;;13.20;98.00;;;14.03;100.00;98255.56;5025188;28;21406;-77
2023/06/03 01:08:00;;;;;;;5.97;2.43;;;13.20;98.00;;;14.01;100.00;98252.34;5025592;28;20478;-78
2023/06/03 01:10:43;;;;;;;9.20;3.03;;;13.20;98.20;;;13.98;100.00;98251.94;5023233;28;21109;-78
2023/06/03 01:13:22;;;;;;;3.20;2.23;;;13.10;98.40;;;13.95;100.00;98242.63;5009103;28;20946;-77
2023/06/03 01:15:56;;;;;;;7.00;2.93;;;13.10;98.40;;;13.90;100.00;98244.25;5027186;28;20458;-77
2023/06/03 01:18:26;;;;;;;12.40;3.00;;;13.10;98.20;;;13.86;100.00;98249.09;5025906;28;20480;-77
2023/06/03 01:21:00;;;;;;;10.43;3.77;;;13.10;98.30;;;13.84;100.00;98245.06;5026426;28;20466;-77
2023/06/03 01:23:33;;;;;;;5.80;2.60;;;13.00;98.50;;;13.84;100.00;98242.44;5025062;28;20519;-77
2023/06/03 01:26:05;;;;;;;5.60;2.63;;;13.00;98.40;;;13.78;100.00;98240.63;5025455;28;20555;-77
2023/06/03 01:28:34;;;;;;;5.60;2.43;;;13.00;98.40;;;13.75;100.00;98241.00;5025708;28;20551;-77
2023/06/03 01:31:05;;;;;;;6.43;2.83;;;12.90;99.10;;;13.72;100.00;98246.66;5026002;28;20470;-77
2023/06/03 01:33:36;;;;;;;6.53;2.87;;;12.90;98.40;;;13.66;100.00;98242.22;5026816;28;20474;-77
2023/06/03 01:36:08;;;;;;;12.73;2.90;;;12.90;98.40;;;13.64;100.00;98244.25;5024347;28;20481;-78
2023/06/03 01:38:39;;;;;;;8.83;2.50;;;12.80;98.60;;;13.60;100.00;98239.41;5023163;28;20525;-77
2023/06/03 01:41:08;;;;;;;3.53;2.17;;;12.80;98.70;;;13.57;100.00;98245.03;5021718;28;20980;-77
2023/06/03 01:43:37;;;;;;;10.97;2.13;;;12.80;98.60;;;13.52;100.00;98236.97;5024724;28;20948;-77
2023/06/03 01:46:06;;;;;;;6.87;2.40;;;12.70;98.60;;;13.49;100.00;98242.63;5022422;28;20461;-78
2023/06/03 01:48:36;;;;;;;3.77;2.60;;;12.70;98.60;;;13.45;100.00;98236.16;5025763;28;20541;-77
2023/06/03 01:51:06;;;;;;;3.70;2.60;;;12.70;98.60;;;13.45;100.00;98236.16;5020714;28;20481;-78
2023/06/03 01:53:35;;;;;;;8.43;2.90;;;12.60;98.80;;;13.40;100.00;98238.56;5024847;28;20551;-77
2023/06/03 01:56:08;;;;;;;7.30;2.63;;;12.60;98.80;;;13.39;100.00;98236.16;5023887;28;20474;-78
2023/06/03 01:58:38;;;;;;;7.40;3.33;;;12.60;98.90;;;13.38;100.00;98235.34;5024199;28;20491;-78
2023/06/03 02:01:08;;;;;;;4.50;2.50;;;12.60;98.90;;;13.32;100.00;98240.56;5023113;28;21003;-77
2023/06/03 02:03:37;;;;;;;5.40;2.50;;;12.50;98.70;;;13.27;100.00;98241.16;5025162;28;20468;-78
2023/06/03 02:06:06;;;;;;;9.90;3.20;;;12.50;98.90;;;13.24;100.00;98238.13;5024790;28;20458;-77
2023/06/03 02:08:36;;;;;;;7.77;3.10;;;12.50;98.90;;;13.19;100.00;98238.72;5024647;28;20557;-77
2023/06/03 02:11:06;;;;;;;3.57;2.40;;;12.40;98.80;;;13.15;100.00;98239.31;5024239;28;20466;-77
2023/06/03 02:13:35;;;;;;;8.73;2.67;;;12.40;98.80;;;13.10;100.00;98232.03;5024294;28;20462;-77
2023/06/03 02:16:05;;;;;;;4.30;2.23;;;12.40;98.90;;;13.07;100.00;98227.16;5024035;28;20959;-77
2023/06/03 02:18:34;;;;;;;7.80;2.47;;;12.30;98.90;;;13.05;100.00;98239.69;5022624;28;20527;-77
2023/06/03 02:21:03;;;;;;;5.33;3.00;;;12.30;99.00;;;13.03;100.00;98229.38;5024329;28;20571;-77
2023/06/03 02:23:32;;;;;;;5.90;2.90;;;12.20;99.20;;;13.00;100.00;98227.13;5021596;28;20561;-77
2023/06/03 02:26:01;;;;;;;6.03;2.60;;;12.20;99.10;;;12.97;100.00;98234.59;5023096;28;20987;-77
2023/06/03 02:28:31;;;;;;;5.60;2.53;;;12.20;99.10;;;12.97;100.00;98234.59;5024357;28;20462;-78
2023/06/03 02:31:00;;;;;;;7.10;2.43;;;12.20;99.30;;;12.94;100.00;98229.75;5024995;28;20470;-77
2023/06/03 02:33:30;;;;;;;4.30;2.20;;;12.20;99.20;;;12.89;100.00;98226.88;5024297;28;21019;-78
2023/06/03 02:35:59;;;;;;;9.30;2.97;;;12.10;99.30;;;12.88;100.00;98227.88;5024605;28;20875;-78
2023/06/03 02:38:27;;;;;;;6.90;2.70;;;12.10;99.60;;;12.87;100.00;98224.47;5025173;28;21251;-77
2023/06/03 02:40:56;;;;;;;4.77;2.73;;;12.10;99.20;;;12.82;100.00;98232.13;5023021;28;20462;-78
2023/06/03 02:43:24;;;;;;;4.73;2.13;;;12.00;99.20;;;12.79;100.00;98234.31;5025005;28;20491;-76
2023/06/03 02:45:54;;;;;;;4.80;2.47;;;12.00;99.20;;;12.76;100.00;98229.47;5024511;28;20493;-77
2023/06/03 02:48:23;;;;;;;7.53;2.73;;;12.00;99.30;;;12.72;100.00;98233.50;5022685;28;20471;-78
2023/06/03 02:50:52;;;;;;;4.13;2.57;;;12.00;99.20;;;12.67;100.00;98226.19;5021858;28;20568;-77
2023/06/03 02:53:21;;;;;;;5.57;2.37;;;12.00;99.50;;;12.60;100.00;98231.41;5024346;28;20469;-77
2023/06/03 02:55:50;;;;;;;6.93;2.40;;;11.90;99.20;;;12.54;100.00;98242.69;5021450;28;20466;-77
2023/06/03 02:58:19;;;;;;;4.90;2.30;;;11.90;99.50;;;12.53;100.00;98243.69;5023141;28;20492;-77
2023/06/03 03:00:48;;;;;;;4.57;2.33;;;11.80;99.60;;;12.55;100.00;98243.50;5023542;28;20561;-78
2023/06/03 03:03:18;;;;;;;8.17;2.87;;;11.80;99.50;;;12.54;100.00;98247.13;5023236;28;20477;-77
2023/06/03 03:05:48;;;;;;;6.30;2.60;;;11.70;99.60;;;12.54;100.00;98249.75;5022112;28;20472;-78
2023/06/03 03:08:18;;;;;;;2.90;2.30;;;11.70;99.50;;;12.51;100.00;98244.91;5021827;28;20472;-77
2023/06/03 03:10:46;;;;;;;8.07;2.40;;;11.70;99.60;;;12.45;100.00;98249.13;5023419;28;20482;-77
2023/06/03 03:13:15;;;;;;;5.40;2.67;;;11.70;99.40;;;12.42;100.00;98254.75;5020147;28;20458;-78
2023/06/03 03:15:44;;;;;;;7.20;2.60;;;11.70;99.70;;;12.40;100.00;98248.88;5018903;28;20559;-77
2023/06/03 03:18:15;;;;;;;8.60;2.40;;;11.60;99.70;;;12.36;100.00;98260.75;5023956;28;20994;-78
2023/06/03 03:20:45;;;;;;;6.67;2.67;;;11.60;99.60;;;12.32;100.00;98264.75;5021120;28;20498;-78
2023/06/03 03:23:14;;;;;;;6.10;2.13;;;11.60;99.80;;;12.31;100.00;98265.78;5021627;28;20465;-78
2023/06/03 03:25:43;;;;;;;5.73;3.20;;;11.50;99.80;;;12.28;100.00;98263.53;5022344;28;20518;-74
2023/06/03 03:28:12;;;;;;;8.93;3.00;;;11.50;99.60;;;12.23;100.00;98260.69;5019746;28;20578;-78
2023/06/03 03:30:41;;;;;;;7.37;2.30;;;11.50;99.60;;;12.22;100.00;98274.78;5024033;28;20477;-77
2023/06/03 03:33:10;;;;;;;6.63;2.50;;;11.50;99.70;;;12.18;100.00;98270.94;5023499;28;20462;-77
2023/06/03 03:35:40;;;;;;;5.87;2.77;;;11.40;99.70;;;12.17;100.00;98271.94;5023633;28;20520;-78
2023/06/03 03:38:11;;;;;;;4.47;2.67;;;11.40;99.90;;;12.15;100.00;98268.69;5024060;28;21196;-77
2023/06/03 03:40:40;;;;;;;4.60;2.10;;;11.40;99.70;;;12.13;100.00;98268.06;5024744;28;20501;-79
2023/06/03 03:43:17;;;;;;;7.47;3.00;;;11.30;99.90;;;12.10;100.00;98271.06;5024409;28;20490;-77
2023/06/03 03:45:46;;;;;;;10.87;2.93;;;11.40;99.80;;;12.07;100.00;98268.84;5024189;28;20557;-77
2023/06/03 03:48:17;;;;;;;4.97;2.30;;;11.30;99.70;;;12.06;100.00;98277.69;5022452;28;20458;-77
2023/06/03 03:50:48;;;;;;;5.07;2.63;;;11.30;99.80;;;12.06;100.00;98277.69;5021134;28;21176;-77
2023/06/03 03:53:26;;;;;;;7.10;2.37;;;11.30;99.90;;;12.03;100.00;98278.91;5022100;28;20460;-75
2023/06/03 03:55:57;;;;;;;7.90;2.43;;;11.30;99.90;;;12.02;100.00;98279.06;5022542;28;20470;-77
2023/06/03 03:58:29;;;;;;;3.50;2.47;;;11.30;99.90;;;11.98;100.00;98272.59;5024107;28;20462;-78
2023/06/03 04:01:09;;;;;;;4.13;2.40;;;11.30;99.90;;;11.96;100.00;98275.41;5023089;28;20501;-77
2023/06/03 04:03:40;;;;;;;5.50;2.50;;;11.30;99.90;;;11.96;100.00;98277.22;5023594;28;20473;-77
2023/06/03 04:06:10;;;;;;;5.00;3.17;;;11.20;99.90;;;11.94;100.00;98274.78;5023305;28;20454;-77
2023/06/03 04:08:45;;;;;;;4.90;2.67;;;11.20;99.90;;;11.91;100.00;98269.91;5023324;28;20454;-75
2023/06/03 04:11:25;;;;;;;6.37;3.43;;;11.20;99.90;;;11.87;100.00;98276.53;5024484;28;20472;-77
2023/06/03 04:13:55;;;;;;;5.33;2.40;;;11.20;99.90;;;11.89;100.00;98274.56;5025397;28;20488;-77
2023/06/03 04:16:54;;;;;;;4.70;2.57;;;11.10;99.90;;;11.90;100.00;98285.84;5026547;28;20477;-78
2023/06/03 04:19:30;;;;;;;13.23;4.57;;;11.10;99.90;;;11.88;100.00;98278.16;5029663;28;20894;-75
2023/06/03 04:22:00;;;;;;;4.40;2.37;;;11.10;99.90;;;11.88;100.00;98282.59;5026585;28;20458;-77
2023/06/03 04:24:31;;;;;;;4.90;2.47;;;11.10;99.90;;;11.89;100.00;98279.78;5027677;28;21023;-78
2023/06/03 04:27:02;;;;;;;5.80;2.60;;;11.10;99.90;;;11.91;100.00;98272.53;5028053;28;20466;-76
2023/06/03 04:29:31;;;;;;;6.73;2.47;;;11.10;99.90;;;11.92;100.00;98275.97;5028655;28;20520;-77
2023/06/03 04:32:01;;;;;;;10.17;3.03;;;11.10;99.90;;;11.90;100.00;98273.56;5029193;28;20472;-76
2023/06/03 04:34:31;;;;;;;4.83;2.73;;;11.20;99.90;;;11.87;100.00;98270.50;5029302;28;20464;-77
2023/06/03 04:37:00;;;;;;;4.27;2.63;;;11.20;99.90;;;11.80;100.00;98273.03;5028995;28;20462;-77
2023/06/03 04:39:30;;;;;;;4.13;2.10;;;11.20;99.90;;;11.78;100.00;98267.19;5028630;28;21038;-77
2023/06/03 04:42:07;;;;;;;4.53;3.03;;;11.10;99.90;;;11.79;100.00;98263.59;5027694;28;20571;-77
2023/06/03 04:44:39;;;;;;;9.73;2.30;;;11.10;99.90;;;11.86;100.00;98263.63;5028287;28;20454;-77
2023/06/03 04:47:10;;;;;;;5.50;3.00;;;11.10;99.90;;;11.93;100.00;98265.31;5028871;28;20469;-76
2023/06/03 04:49:40;;;;;;;4.40;2.90;;;11.10;99.90;;;11.98;100.00;98269.97;5028321;28;21079;-77
2023/06/03 04:52:10;;;;;;;3.20;2.37;;;11.20;99.90;;;12.03;100.00;98271.03;5027313;28;20498;-76
2023/06/03 04:54:41;;;;;;;6.93;2.50;;;11.20;99.90;;;12.05;100.00;98274.25;5028312;28;20475;-77
2023/06/03 04:57:10;;;;;;;6.60;2.90;;;11.30;99.90;;;12.08;100.00;98270.44;5028403;28;20465;-77
2023/06/03 04:59:38;;;;;;;5.60;2.67;;;11.30;99.90;;;12.13;100.00;98265.44;5028948;28;20481;-77
2023/06/03 05:02:08;;;;;;;7.80;2.87;;;11.30;99.90;;;12.13;100.00;98268.06;5027941;28;20469;-77
2023/06/03 05:04:40;;;;;;;9.20;2.53;;;11.30;99.90;;;12.19;100.00;98264.69;5012559;28;20465;-77
2023/06/03 05:07:11;;;;;;;5.47;2.70;;;11.40;99.90;;;12.24;100.00;98264.94;5028852;28;20469;-77
2023/06/03 05:09:41;;;;;;;5.37;2.67;;;11.40;99.90;;;12.28;100.00;98258.31;5028625;28;20890;-77
2023/06/03 05:12:11;;;;;;;6.10;2.67;;;11.50;99.90;;;12.34;100.00;98262.75;5027261;28;21099;-77
2023/06/03 05:14:41;;;;;;;4.67;2.40;;;11.50;99.90;;;12.35;100.00;98264.41;5029182;28;20466;-77
2023/06/03 05:17:10;;;;;;;4.70;2.83;;;11.60;99.90;;;12.36;100.00;98259.94;5027172;28;20833;-77
2023/06/03 05:19:39;;;;;;;4.63;2.90;;;11.60;99.90;;;12.36;100.00;98262.56;5027129;28;20489;-77
2023/06/03 05:22:08;;;;;;;7.20;2.87;;;11.60;99.90;;;12.39;100.00;98264.81;5028158;28;20481;-77
2023/06/03 05:24:36;;;;;;;7.23;2.80;;;11.60;99.90;;;12.41;100.00;98263.63;5025903;28;20506;-77
2023/06/03 05:27:07;;;;;;;4.50;2.57;;;11.60;99.90;;;12.46;100.00;98261.22;5028380;28;20473;-76
2023/06/03 05:29:36;;;;;;;8.43;3.10;;;11.70;99.90;;;12.50;100.00;98259.00;5028325;28;20465;-76
2023/06/03 05:32:06;;;;;;;7.07;2.80;;;11.70;99.90;;;12.54;100.00;98257.63;5028497;28;20820;-77
2023/06/03 05:34:35;;;;;;;5.50;2.30;;;11.80;99.90;;;12.58;100.00;98248.38;5028106;28;20469;-77
2023/06/03 05:37:03;;;;;;;4.70;2.70;;;11.80;99.90;;;12.63;100.00;98245.16;5027056;28;20462;-77
2023/06/03 05:39:33;;;;;;;6.63;2.97;;;11.90;99.90;;;12.68;100.00;98245.38;5027065;28;20458;-77
2023/06/03 05:42:02;;;;;;;6.10;3.40;;;11.90;99.90;;;12.72;100.00;98252.66;5027028;28;20557;-77
2023/06/03 05:44:32;;;;;;;8.93;3.00;;;12.00;99.90;;;12.78;100.00;98254.50;5026788;28;20555;-77
2023/06/03 05:47:01;;;;;;;7.20;2.50;;;12.00;99.90;;;12.83;100.00;98252.13;5027829;28;20528;-77
2023/06/03 05:49:30;;;;;;;8.30;2.67;;;12.10;99.90;;;12.90;100.00;98255.56;5026907;28;20488;-77
2023/06/03 05:51:59;;;;;;;5.83;2.90;;;12.10;99.90;;;12.96;100.00;98246.91;5027404;28;20482;-77
2023/06/03 05:54:29;;;;;;;8.60;3.90;;;12.20;99.90;;;13.02;100.00;98245.31;5026576;28;20462;-77
2023/06/03 05:56:58;;;;;;;4.97;3.00;;;12.20;99.90;;;13.08;100.00;98236.66;5026892;28;21062;-77
2023/06/03 05:59:27;;;;;;;11.80;3.57;;;12.30;99.90;;;13.14;100.00;98241.13;5026757;28;20466;-77
2023/06/03 06:01:57;;;;;;;7.97;3.90;;;12.30;99.90;;;13.20;100.00;98244.78;5026491;28;20506;-76
2023/06/03 06:04:26;;;;;;;8.93;3.77;;;12.40;99.90;;;13.26;100.00;98231.66;5025904;28;20524;-77
2023/06/03 06:06:55;;;;;;;8.33;3.77;;;12.40;99.90;;;13.35;100.00;98240.19;5028091;28;20470;-77
2023/06/03 06:09:23;;;;;;;6.50;3.40;;;12.60;99.90;;;13.44;100.00;98246.84;5027001;28;20493;-77
2023/06/03 06:11:52;;;;;;;8.63;3.10;;;12.60;99.90;;;13.52;100.00;98244.03;5028317;28;20466;-77
2023/06/03 06:14:20;;;;;;;9.40;3.40;;;12.70;99.90;;;13.58;100.00;98246.66;5027463;28;20548;-77
2023/06/03 06:16:51;;;;;;;11.93;3.87;;;12.80;99.90;;;13.67;100.00;98246.47;5027969;28;20473;-77
2023/06/03 06:19:23;;;;;;;5.93;3.30;;;12.90;99.90;;;13.74;100.00;98247.28;5027915;28;20953;-77
2023/06/03 06:21:52;;;;;;;6.83;3.40;;;13.00;99.90;;;13.80;100.00;98247.28;5027406;28;20572;-77
2023/06/03 06:24:21;;;;;;;6.67;3.23;;;13.00;99.90;;;13.85;100.00;98251.94;5026542;28;20464;-77
2023/06/03 06:26:52;;;;;;;5.27;3.27;;;13.00;99.90;;;13.94;100.00;98255.97;5027181;28;20463;-77
2023/06/03 06:29:21;;;;;;;8.33;3.90;;;13.10;99.90;;;14.02;100.00;98256.56;5026931;28;20580;-77
2023/06/03 06:31:51;;;;;;;5.90;3.33;;;13.30;99.90;;;14.10;100.00;98255.56;5027670;28;20465;-77
2023/06/03 06:34:22;;;;;;;7.23;3.90;;;13.40;99.90;;;14.16;100.00;98249.47;5026585;28;20497;-77
2023/06/03 06:36:52;;;;;;;7.00;2.80;;;13.50;99.90;;;14.21;100.00;98254.94;5025190;28;20545;-78
2023/06/03 06:39:57;;;;;;;7.23;2.70;;;13.50;99.90;;;14.28;100.00;98253.09;5027021;28;20933;-77
2023/06/03 06:42:31;;;;;;;8.00;3.13;;;13.50;99.90;;;14.35;100.00;98251.31;5008785;28;20481;-77
2023/06/03 06:45:10;;;;;;;7.57;3.13;;;13.60;99.80;;;14.40;100.00;98245.44;5026020;28;20465;-77
2023/06/03 06:47:39;;;;;;;7.47;3.53;;;13.70;99.40;;;14.45;100.00;98254.31;5026404;28;20462;-77
2023/06/03 06:50:49;;;;;;;4.13;2.80;;;13.70;99.60;;;14.51;100.00;98242.97;5026941;28;21116;-77
2023/06/03 06:53:21;;;;;;;4.57;2.83;;;13.90;99.30;;;14.56;100.00;98244.97;5015424;28;20498;-78
2023/06/03 06:55:52;;;;;;;6.93;3.77;;;13.90;99.30;;;14.59;100.00;98244.56;5027763;28;20568;-77
2023/06/03 06:58:22;;;;;;;8.87;3.77;;;13.90;99.10;;;14.65;100.00;98248.19;5027087;28;21036;-79
2023/06/03 07:00:51;;;;;;;5.97;3.07;;;13.90;99.30;;;14.70;100.00;98243.09;5026513;28;20992;-79
2023/06/03 07:03:22;;;;;;;13.33;3.47;;;13.90;99.20;;;14.76;100.00;98244.91;5026598;28;20470;-79
2023/06/03 07:05:53;;;;;;;7.67;3.30;;;14.00;99.00;;;14.82;100.00;98244.88;5027483;28;20497;-79
2023/06/03 07:08:23;;;;;;;10.63;3.47;;;14.10;98.80;;;14.86;100.00;98240.81;5025716;28;21099;-79
2023/06/03 07:10:52;;;;;;;7.17;3.77;;;14.10;98.80;;;14.90;100.00;98243.84;5026134;28;20553;-79
2023/06/03 07:13:21;;;;;;;4.60;3.10;;;14.10;99.10;;;14.95;100.00;98239.56;5026298;28;20817;-79
2023/06/03 07:15:52;;;;;;;6.90;3.50;;;14.20;99.30;;;15.02;100.00;98242.97;5026259;28;20528;-79
2023/06/03 07:18:21;;;;;;;6.23;3.70;;;14.30;99.00;;;15.11;100.00;98235.63;5026429;28;20461;-78
2023/06/03 07:20:51;;;;;;;4.80;3.20;;;14.30;98.80;;;15.19;100.00;98243.28;5025402;28;20498;-79
2023/06/03 07:23:25;;;;;;;6.30;3.17;;;14.50;99.00;;;15.27;100.00;98240.38;5024860;28;20470;-79
2023/06/03 07:25:56;;;;;;;7.03;3.40;;;14.50;98.70;;;15.31;100.00;98238.94;5026880;28;20481;-79
2023/06/03 07:28:32;;;;;;;5.20;2.53;;;14.50;98.70;;;15.38;100.00;98239.72;5025359;28;20619;-79
2023/06/03 07:31:06;;;;;;;6.23;2.73;;;14.70;98.60;;;15.45;100.00;98242.31;5025093;28;20477;-79
2023/06/03 07:33:46;;;;;;;7.17;3.13;;;14.70;98.60;;;15.46;98.63;98241.28;5025953;28;20485;-79
2023/06/03 07:36:16;;;;;;;4.33;2.73;;;14.80;98.20;;;15.48;98.24;98244.53;5025084;28;20466;-79
2023/06/03 07:39:05;;;;;;;6.67;3.20;;;14.80;98.20;;;15.55;98.55;98246.13;5024938;28;20462;-79
2023/06/03 07:41:50;;;;;;;8.53;2.97;;;14.90;98.20;;;15.58;97.81;98242.28;5025205;28;20494;-79
2023/06/03 07:44:40;;;;;;;5.73;2.37;;;14.80;98.00;;;15.61;98.04;98241.84;5025782;28;20462;-79
2023/06/03 07:47:12;;;;;;;6.60;3.30;;;14.80;98.30;;;15.70;98.56;98239.72;5024875;28;20466;-79
2023/06/03 07:49:44;;;;;;;4.57;2.70;;;15.00;98.40;;;15.75;98.05;98248.63;5024887;28;20555;-79
2023/06/03 07:52:23;;;;;;;5.47;2.93;;;14.90;98.20;;;15.78;95.80;98239.47;5026732;28;20477;-79
2023/06/03 07:54:52;;;;;;;6.20;3.30;;;15.00;97.80;;;15.80;95.81;98247.97;5025161;28;20999;-79
2023/06/03 07:57:20;;;;;;;10.43;3.77;;;15.00;97.80;;;15.83;95.37;98240.44;5024957;28;20470;-79
2023/06/03 07:59:53;;;;;;;6.07;2.90;;;15.00;97.90;;;15.85;95.76;98246.31;5025271;28;20473;-79
2023/06/03 08:02:23;;;;;;;8.10;3.03;;;15.00;97.90;;;15.93;96.06;98237.31;5026500;28;20505;-79
2023/06/03 08:05:00;;;;;;;8.40;3.30;;;15.20;98.00;;;15.97;95.32;98243.75;5026122;28;20548;-79
2023/06/03 08:07:30;;;;;;;8.97;3.33;;;15.20;97.90;;;16.06;95.21;98245.94;5025695;28;20473;-79
2023/06/03 08:09:59;;;;;;;6.67;3.07;;;15.30;97.80;;;16.13;94.76;98237.94;5025955;28;20524;-79
2023/06/03 08:12:34;;;;;;;5.73;2.70;;;15.30;97.70;;;16.21;94.71;98253.47;5024736;28;20462;-79
2023/06/03 08:15:04;;;;;;;8.90;3.03;;;15.50;97.70;;;16.26;92.06;98256.28;5026058;28;20476;-79
2023/06/03 08:17:41;;;;;;;7.53;3.17;;;15.60;97.00;;;16.27;91.87;98255.28;5025625;28;20543;-79
2023/06/03 08:20:12;;;;;;;7.20;2.77;;;15.60;97.00;;;16.31;91.79;98259.09;5024855;28;20540;-79
2023/06/03 08:22:44;;;;;;;6.33;2.30;;;15.60;97.10;;;16.39;91.49;98258.78;5025573;28;20494;-79
2023/06/03 08:25:14;;;;;;;7.23;2.13;;;15.70;97.00;;;16.45;91.23;98257.91;5024631;28;20469;-79
2023/06/03 08:27:45;;;;;;;4.80;3.00;;;15.80;97.00;;;16.50;90.73;98254.63;5025999;28;20466;-79
2023/06/03 08:30:14;;;;;;;6.63;2.83;;;15.80;96.60;;;16.51;90.57;98246.50;5025486;28;20466;-79
2023/06/03 08:32:44;;;;;;;5.00;2.90;;;15.80;96.90;;;16.59;89.75;98254.13;5025529;28;20473;-79
2023/06/03 08:35:15;;;;;;;11.83;3.03;;;15.90;96.70;;;16.65;88.87;98243.72;5023996;28;20952;-79
2023/06/03 08:37:46;;;;;;;9.37;3.40;;;15.90;96.50;;;16.70;88.39;98241.22;5025422;28;20500;-79
2023/06/03 08:40:17;;;;;;;4.37;2.63;;;16.00;96.40;;;16.77;88.11;98255.97;5025109;28;20870;-79
2023/06/03 08:42:48;;;;;;;6.63;2.90;;;16.10;96.30;;;16.81;87.78;98257.16;5025271;28;20509;-79
2023/06/03 08:45:19;;;;;;;3.20;2.43;;;16.20;96.20;;;16.86;86.69;98253.84;5024388;28;21276;-79
2023/06/03 08:48:07;;;;;;;7.30;3.17;;;16.30;95.90;;;16.91;85.46;98246.84;5024414;28;20502;-79
2023/06/03 08:50:37;;;;;;;9.47;3.27;;;16.30;95.50;;;16.95;85.69;98249.88;5026112;28;20536;-79
2023/06/03 08:53:11;;;;;;;5.73;2.47;;;16.30;95.80;;;16.99;85.57;98248.41;5026031;28;20469;-79
2023/06/03 08:55:41;;;;;;;5.20;2.90;;;16.30;95.70;;;17.02;86.28;98247.94;5024616;28;20469;-79
2023/06/03 08:58:17;;;;;;;6.23;2.63;;;16.30;96.00;;;17.07;85.70;98253.38;5025560;28;20524;-80
2023/06/03 09:00:52;;;;;;;6.90;2.70;;;16.30;95.80;;;17.04;84.06;98251.19;5029773;28;20908;-80
2023/06/03 09:03:21;;;;;;;6.67;2.87;;;16.30;95.30;;;17.04;83.28;98251.19;5027701;28;20503;-79
2023/06/03 09:05:51;;;;;;;6.03;2.90;;;16.30;95.30;;;17.08;83.78;98257.63;5028563;28;20944;-79
2023/06/03 09:08:25;;;;;;;9.90;2.93;;;16.40;95.50;;;17.12;83.99;98269.34;5029500;28;20512;-79
2023/06/03 09:10:56;;;;;;;8.30;3.00;;;16.40;95.50;;;17.16;83.07;98259.16;5027379;28;20462;-79
2023/06/03 09:13:28;;;;;;;3.23;2.40;;;16.50;95.20;;;17.18;82.79;98252.59;5029194;28;20509;-79
2023/06/03 09:15:58;;;;;;;5.83;2.90;;;16.50;95.10;;;17.17;81.81;98253.66;5028255;28;20470;-79
2023/06/03 09:18:27;;;;;;;4.90;2.53;;;16.50;94.80;;;17.23;82.24;98254.59;5027748;28;20470;-79
2023/06/03 09:20:57;;;;;;;6.10;2.60;;;16.60;94.80;;;17.26;82.23;98249.66;5028306;28;20469;-79
2023/06/03 09:23:29;;;;;;;3.70;2.17;;;16.60;94.90;;;17.33;83.67;98244.28;5027193;28;20497;-79
2023/06/03 09:25:59;;;;;;;5.10;2.70;;;16.60;95.40;;;17.40;83.20;98248.44;5026585;28;20512;-79
2023/06/03 09:28:30;;;;;;;6.07;2.60;;;16.60;95.60;;;17.41;82.59;98247.41;5027385;28;20462;-79
2023/06/03 09:30:59;;;;;;;4.70;3.07;;;16.60;95.20;;;17.43;81.24;98240.06;5028042;28;20539;-79
2023/06/03 09:33:29;;;;;;;10.07;3.07;;;16.70;94.80;;;17.53;80.99;98250.88;5026985;28;20520;-79
2023/06/03 09:36:10;;;;;;;4.70;2.90;;;16.80;94.80;;;17.63;81.18;98245.09;5027364;28;21018;-79
2023/06/03 09:38:55;;;;;;;8.60;3.10;;;16.80;95.00;;;17.70;80.92;98251.06;5027995;28;20469;-79
2023/06/03 09:41:26;;;;;;;8.43;3.03;;;17.00;95.00;;;17.77;80.52;98248.34;5026091;28;20470;-79
2023/06/03 09:43:57;;;;;;;9.67;2.80;;;17.10;94.90;;;17.82;79.98;98243.97;5028169;28;20499;-79
2023/06/03 09:46:29;;;;;;;7.23;2.90;;;17.20;94.70;;;17.88;79.46;98243.03;5028154;28;21024;-79
2023/06/03 09:49:09;;;;;;;4.80;2.83;;;17.20;94.30;;;17.88;78.88;98242.25;5028746;28;20481;-79
2023/06/03 09:51:42;;;;;;;5.20;2.57;;;17.10;94.30;;;17.93;79.21;98245.81;5026455;28;20462;-79
2023/06/03 09:54:15;;;;;;;7.90;3.23;;;17.30;94.60;;;18.01;79.48;98244.69;5027725;28;20470;-79
2023/06/03 09:56:45;;;;;;;4.93;2.60;;;17.30;94.50;;;18.00;78.80;98258.94;5027829;28;20928;-79
2023/06/03 09:59:16;;;;;;;4.70;2.67;;;17.30;94.40;;;18.07;78.14;98257.00;5027200;28;20466;-79
2023/06/03 10:01:48;;;;;;;9.97;3.37;;;17.40;94.20;;;18.13;78.16;98250.78;5026966;28;20462;-79
2023/06/03 10:04:20;;;;;;;11.73;2.93;;;17.50;94.20;;;18.18;78.06;98240.31;5027643;28;20494;-79
2023/06/03 10:06:49;;;;;;;4.83;2.63;;;17.40;94.30;;;18.30;78.74;98246.41;5028742;28;20476;-79
2023/06/03 10:09:25;;;;;;;5.83;2.87;;;17.70;94.40;;;18.34;76.70;98244.09;5027640;28;20469;-79
2023/06/03 10:11:54;;;;;;;5.37;2.63;;;17.70;93.90;;;18.35;76.47;98246.53;5025422;28;20558;-79
2023/06/03 10:14:26;;;;;;;5.87;2.70;;;17.70;93.90;;;18.39;75.51;98245.03;5027638;28;20466;-79
2023/06/03 10:17:07;;;;;;;6.43;2.83;;;17.90;93.60;;;18.36;76.45;98239.38;5027430;28;20470;-79
2023/06/03 10:19:38;;;;;;;3.80;2.87;;;17.70;93.80;;;18.40;77.89;98240.50;5027062;28;20470;-79
2023/06/03 10:22:09;;;;;;;5.17;2.90;;;17.70;94.40;;;18.48;77.63;98238.31;5027111;28;20473;-79
2023/06/03 10:24:42;;;;;;;5.63;2.37;;;17.80;94.20;;;18.56;77.47;98232.72;5027124;28;20462;-79
2023/06/03 10:27:13;;;;;;;4.43;2.50;;;17.90;94.20;;;18.68;76.77;98242.47;5026780;28;20470;-79
2023/06/03 10:29:42;;;;;;;3.93;2.53;;;18.00;94.10;;;18.66;76.66;98234.75;5026906;28;20470;-79
2023/06/03 10:32:14;;;;;;;6.67;2.97;;;18.00;94.00;;;18.67;78.02;98225.78;5027987;28;20470;-79